Time;durP1;ratioP1;P1;durP2;ratioP2;P2;SDS_P1;SDS_P2;PMS_P1;PMS_P2;Temp;Humidity;BMP_temperature;BMP_pressure;BME280_temperature;BME280_humidity;BME280_pressure;Samples;Min_cycle;Max_cycle;Signal;HPM_P1;HPM_P2
2023/06/04 00:01:55;;;;;;;0.40;0.10;;;12.90;99.90;;;;;;5047966;28;20041;-79
2023/06/04 00:04:23;;;;;;;1.48;0.15;;;12.80;99.90;;;;;;5063639;28;20053;-80
2023/06/04 00:06:49;;;;;;;0.65;0.17;;;12.80;99.90;;;;;;5048655;28;20020;-80
2023/06/04 00:09:15;;;;;;;0.80;0.10;;;12.80;99.90;;;;;;5063408;28;20031;-78
2023/06/04 00:11:41;;;;;;;0.65;0.10;;;12.60;99.90;;;;;;5046871;28;20309;-78
2023/06/04 00:14:06;;;;;;;1.15;0.20;;;12.70;99.90;;;;;;5072586;28;20283;-78
2023/06/04 00:16:35;;;;;;;0.60;0.10;;;12.50;99.90;;;;;;5044835;28;20029;-77
2023/06/04 00:19:01;;;;;;;1.65;0.10;;;12.50;99.90;;;;;;5047209;28;20025;-78
2023/06/04 00:21:27;;;;;;;0.50;0.10;;;12.40;99.90;;;;;;5059199;28;20067;-78
2023/06/04 00:23:52;;;;;;;0.30;0.10;;;12.50;99.90;;;;;;5073447;28;20448;-77
2023/06/04 00:26:18;;;;;;;0.45;0.10;;;12.40;99.90;;;;;;5056794;28;20444;-77
2023/06/04 00:28:46;;;;;;;2.78;0.10;;;12.40;99.90;;;;;;5047319;28;20020;-77
2023/06/04 00:31:12;;;;;;;0.40;0.10;;;12.30;99.90;;;;;;5061227;28;20535;-78
2023/06/04 00:33:39;;;;;;;0.80;0.10;;;12.20;99.90;;;;;;5060898;28;20021;-77
2023/06/04 00:36:05;;;;;;;0.28;0.10;;;12.10;99.90;;;;;;5057164;28;20027;-77
2023/06/04 00:38:30;;;;;;;2.00;0.40;;;12.10;99.90;;;;;;5047320;28;20115;-77
2023/06/04 00:40:56;;;;;;;1.33;0.10;;;12.10;99.90;;;;;;5046560;28;20427;-79
2023/06/04 00:43:25;;;;;;;1.05;0.20;;;12.00;99.90;;;;;;5090160;28;20044;-77
2023/06/04 00:45:52;;;;;;;0.50;0.10;;;12.00;99.90;;;;;;5056540;28;20028;-77
2023/06/04 00:48:18;;;;;;;0.30;0.10;;;12.00;99.90;;;;;;5046793;28;20021;-77
2023/06/04 00:50:44;;;;;;;0.10;0.05;;;11.90;99.90;;;;;;5044727;28;20025;-78
2023/06/04 00:53:10;;;;;;;0.68;0.10;;;11.90;99.90;;;;;;5047966;28;20029;-77
2023/06/04 00:55:36;;;;;;;0.43;0.10;;;11.80;99.90;;;;;;5060254;28;20028;-78
2023/06/04 00:58:04;;;;;;;0.50;0.17;;;11.70;99.90;;;;;;5059831;28;20032;-77
2023/06/04 01:00:32;;;;;;;0.45;0.10;;;11.70;99.90;;;;;;5076097;28;20031;-77
2023/06/04 01:03:02;;;;;;;1.27;0.10;;;11.70;99.90;;;;;;5043098;28;20563;-77
2023/06/04 01:05:43;;;;;;;1.65;0.10;;;11.60;99.90;;;;;;5076982;28;20124;-78
2023/06/04 01:08:10;;;;;;;0.63;0.15;;;11.60;99.90;;;;;;5046896;28;20055;-77
2023/06/04 01:10:36;;;;;;;1.10;0.10;;;11.60;99.90;;;;;;5062385;28;20473;-78
2023/06/04 01:13:01;;;;;;;0.38;0.10;;;11.50;99.90;;;;;;5049322;28;20063;-78
2023/06/04 01:15:27;;;;;;;0.60;0.20;;;11.50;99.90;;;;;;5066140;28;20108;-79
2023/06/04 01:18:03;;;;;;;0.50;0.10;;;11.40;99.90;;;;;;5063072;28;20017;-80
2023/06/04 01:20:34;;;;;;;0.52;0.13;;;11.40;99.90;;;;;;5055732;28;20074;-79
2023/06/04 01:23:27;;;;;;;0.52;0.17;;;11.40;99.90;;;;;;5048989;28;20044;-79
2023/06/04 01:25:53;;;;;;;0.55;0.15;;;11.30;99.90;;;;;;5063378;28;20061;-79
2023/06/04 01:28:20;;;;;;;0.50;0.10;;;11.30;99.90;;;;;;5049788;28;20090;-77
2023/06/04 01:30:48;;;;;;;0.85;0.20;;;11.30;99.90;;;;;;5063023;28;20049;-79
2023/06/04 01:33:16;;;;;;;0.98;0.10;;;11.20;99.90;;;;;;5066508;28;20127;-79
2023/06/04 01:35:42;;;;;;;0.50;0.10;;;11.10;99.90;;;;;;5068731;28;20059;-77
2023/06/04 01:38:08;;;;;;;0.88;0.10;;;11.10;99.90;;;;;;5061489;28;20063;-79
2023/06/04 01:40:34;;;;;;;0.60;0.20;;;11.10;99.90;;;;;;5047927;28;20060;-78
2023/06/04 01:43:00;;;;;;;1.15;0.17;;;11.10;99.90;;;;;;5046133;28;20572;-77
2023/06/04 01:45:27;;;;;;;1.05;0.10;;;11.20;99.90;;;;;;5046520;28;20119;-77
2023/06/04 01:47:54;;;;;;;1.35;0.20;;;11.10;99.90;;;;;;5048801;28;20048;-77
2023/06/04 01:50:20;;;;;;;0.55;0.10;;;11.10;99.90;;;;;;5062283;28;20021;-78
2023/06/04 01:52:45;;;;;;;0.50;0.10;;;11.10;99.90;;;;;;5048426;28;20040;-78
2023/06/04 01:55:14;;;;;;;0.90;0.20;;;11.10;99.90;;;;;;5049734;28;20029;-78
2023/06/04 01:57:44;;;;;;;0.80;0.20;;;11.00;99.90;;;;;;5051364;28;20025;-78
2023/06/04 02:00:11;;;;;;;1.30;0.30;;;10.90;99.90;;;;;;5094961;28;20032;-78
2023/06/04 02:02:41;;;;;;;0.60;0.20;;;10.90;99.90;;;;;;5066392;28;20047;-78
2023/06/04 02:05:08;;;;;;;0.80;0.20;;;10.90;99.90;;;;;;5062143;28;20017;-78
2023/06/04 02:07:38;;;;;;;1.13;0.15;;;10.80;99.90;;;;;;5058847;28;20032;-78
2023/06/04 02:10:11;;;;;;;0.47;0.10;;;10.80;99.90;;;;;;5081226;28;20534;-78
2023/06/04 02:12:40;;;;;;;0.60;0.20;;;10.80;99.90;;;;;;5045647;28;20047;-78
2023/06/04 02:15:07;;;;;;;1.27;0.17;;;10.80;99.90;;;;;;5060113;28;20382;-79
2023/06/04 02:17:37;;;;;;;0.20;0.10;;;10.70;99.90;;;;;;5045048;28;20025;-78
2023/06/04 02:20:04;;;;;;;0.68;0.17;;;10.70;99.90;;;;;;5049223;28;20374;-78
2023/06/04 02:22:30;;;;;;;1.15;0.30;;;10.70;99.90;;;;;;5067307;28;20501;-79
2023/06/04 02:24:55;;;;;;;0.30;0.10;;;10.70;99.90;;;;;;5073854;28;20055;-80
2023/06/04 02:27:21;;;;;;;0.60;0.20;;;10.70;99.90;;;;;;5063912;28;20032;-79
2023/06/04 02:29:47;;;;;;;0.57;0.20;;;10.60;99.90;;;;;;5050233;28;20049;-79
2023/06/04 02:32:13;;;;;;;0.90;0.20;;;10.60;99.90;;;;;;5050287;28;20039;-79
2023/06/04 02:34:39;;;;;;;0.57;0.10;;;10.60;99.90;;;;;;5064700;28;20033;-79
2023/06/04 02:37:04;;;;;;;1.00;0.20;;;10.60;99.90;;;;;;5062891;28;20029;-79
2023/06/04 02:39:30;;;;;;;0.52;0.10;;;10.50;99.90;;;;;;5049970;28;20020;-78
2023/06/04 02:41:56;;;;;;;1.35;0.20;;;10.50;99.90;;;;;;5049029;28;20036;-79
2023/06/04 02:44:22;;;;;;;1.95;0.20;;;10.50;99.90;;;;;;5065420;28;20024;-79
2023/06/04 02:46:47;;;;;;;0.90;0.20;;;10.40;99.90;;;;;;5047615;28;20025;-79
2023/06/04 02:49:13;;;;;;;0.55;0.20;;;10.40;99.90;;;;;;5050730;28;20550;-77
2023/06/04 02:51:43;;;;;;;0.75;0.25;;;10.40;99.90;;;;;;5047086;28;20055;-79
2023/06/04 02:54:09;;;;;;;0.65;0.30;;;10.40;99.90;;;;;;5048717;28;20052;-79
2023/06/04 02:56:37;;;;;;;1.45;0.30;;;10.30;99.90;;;;;;5062011;28;20466;-80
2023/06/04 02:59:03;;;;;;;0.85;0.30;;;10.30;99.90;;;;;;5060216;28;20033;-79
2023/06/04 03:01:28;;;;;;;0.70;0.20;;;10.30;99.90;;;;;;5045240;28;20115;-80
2023/06/04 03:03:55;;;;;;;0.50;0.20;;;10.30;99.90;;;;;;5044710;28;20425;-79
2023/06/04 03:06:21;;;;;;;0.88;0.20;;;10.20;99.90;;;;;;5045647;28;20032;-80
2023/06/04 03:08:49;;;;;;;1.63;0.20;;;10.20;99.90;;;;;;5045275;28;20802;-80
2023/06/04 03:11:16;;;;;;;1.00;0.20;;;10.20;99.90;;;;;;5078280;28;20056;-80
2023/06/04 03:13:41;;;;;;;0.55;0.20;;;10.20;99.90;;;;;;5044679;28;20384;-79
2023/06/04 03:16:09;;;;;;;0.80;0.20;;;10.10;99.90;;;;;;5075507;28;20025;-80
2023/06/04 03:18:42;;;;;;;1.13;0.20;;;10.10;99.90;;;;;;5064858;28;20025;-80
2023/06/04 03:21:09;;;;;;;1.67;0.30;;;10.10;99.90;;;;;;5046406;28;20386;-80
2023/06/04 03:23:35;;;;;;;1.15;0.30;;;10.10;99.90;;;;;;5077283;28;20032;-80
2023/06/04 03:26:02;;;;;;;0.60;0.20;;;10.10;99.90;;;;;;5062162;28;20025;-80
2023/06/04 03:28:29;;;;;;;1.02;0.30;;;10.10;99.90;;;;;;5051416;28;20028;-79
2023/06/04 03:30:55;;;;;;;0.80;0.28;;;10.10;99.90;;;;;;5044433;28;20401;-79
2023/06/04 03:33:23;;;;;;;0.88;0.30;;;10.00;99.90;;;;;;5048083;28;20052;-79
2023/06/04 03:35:52;;;;;;;0.95;0.35;;;10.00;99.90;;;;;;5060238;28;20406;-79
2023/06/04 03:38:19;;;;;;;0.60;0.20;;;10.00;99.90;;;;;;5045906;28;20033;-79
2023/06/04 03:40:46;;;;;;;0.98;0.25;;;10.00;99.90;;;;;;5042031;28;20029;-77
2023/06/04 03:43:12;;;;;;;1.50;0.52;;;9.90;99.90;;;;;;5044536;28;20048;-79
2023/06/04 03:45:38;;;;;;;1.17;0.20;;;10.00;99.90;;;;;;5043694;28;20025;-79
2023/06/04 03:48:04;;;;;;;1.00;0.30;;;10.00;99.90;;;;;;5042895;28;20540;-78
2023/06/04 03:50:31;;;;;;;0.98;0.30;;;10.00;99.90;;;;;;5061323;28;20025;-79
2023/06/04 03:52:57;;;;;;;0.60;0.28;;;10.00;99.90;;;;;;5063126;28;20024;-79
2023/06/04 03:55:24;;;;;;;1.25;0.30;;;10.00;99.90;;;;;;5062789;28;20044;-78
2023/06/04 03:57:50;;;;;;;0.85;0.30;;;10.00;99.90;;;;;;5047527;28;20389;-79
2023/06/04 04:00:20;;;;;;;1.83;0.30;;;10.00;99.90;;;;;;5048504;28;20024;-79
2023/06/04 04:02:49;;;;;;;0.98;0.30;;;10.00;99.90;;;;;;5043772;28;20397;-79
2023/06/04 04:05:21;;;;;;;0.65;0.30;;;10.00;99.90;;;;;;5047226;28;20094;-79
2023/06/04 04:07:48;;;;;;;0.88;0.30;;;10.00;99.90;;;;;;5059292;28;20028;-78
2023/06/04 04:10:17;;;;;;;1.20;0.28;;;10.00;99.90;;;;;;5062471;28;20036;-78
2023/06/04 04:12:43;;;;;;;1.40;0.35;;;10.00;99.90;;;;;;5056624;28;20029;-78
2023/06/04 04:15:09;;;;;;;1.15;0.28;;;10.10;99.90;;;;;;5043646;28;20014;-77
2023/06/04 04:17:35;;;;;;;1.80;0.30;;;10.10;99.90;;;;;;5064127;28;20025;-78
2023/06/04 04:20:03;;;;;;;1.33;0.30;;;10.10;99.90;;;;;;5043314;28;20039;-78
2023/06/04 04:22:31;;;;;;;1.95;0.30;;;10.10;99.90;;;;;;5043621;28;20036;-77
2023/06/04 04:24:57;;;;;;;2.97;0.50;;;10.20;99.90;;;;;;5047370;28;20481;-77
2023/06/04 04:27:23;;;;;;;1.30;0.40;;;10.20;99.90;;;;;;5043660;28;20032;-80
2023/06/04 04:29:50;;;;;;;2.70;0.40;;;10.30;99.90;;;;;;5047835;28;20033;-80
2023/06/04 04:32:16;;;;;;;1.10;0.30;;;10.40;99.90;;;;;;5059380;28;20029;-80
2023/06/04 04:34:53;;;;;;;1.10;0.30;;;10.50;99.90;;;;;;5061897;28;20031;-79
2023/06/04 04:37:23;;;;;;;1.27;0.30;;;10.60;99.90;;;;;;5061612;28;20029;-80
2023/06/04 04:39:51;;;;;;;0.93;0.30;;;10.70;99.90;;;;;;5048056;28;20065;-80
2023/06/04 04:42:19;;;;;;;2.20;0.40;;;10.80;99.90;;;;;;5043825;28;20037;-80
2023/06/04 04:44:47;;;;;;;1.05;0.40;;;10.90;99.90;;;;;;5055720;28;20079;-80
2023/06/04 04:47:17;;;;;;;1.63;0.40;;;11.00;99.90;;;;;;5091699;28;20073;-80
2023/06/04 04:49:43;;;;;;;;;;;11.10;99.90;;;;;;5060639;28;20378;-79
2023/06/04 04:52:09;;;;;;;2.42;0.40;;;11.30;99.90;;;;;;5043462;28;19913;-79
2023/06/04 04:54:37;;;;;;;1.67;0.28;;;11.30;99.90;;;;;;5061276;28;20283;-80
2023/06/04 04:57:04;;;;;;;1.02;0.40;;;11.50;99.90;;;;;;5077067;28;20021;-80
2023/06/04 04:59:29;;;;;;;1.20;0.40;;;11.80;99.90;;;;;;5064971;28;20025;-80
2023/06/04 05:01:57;;;;;;;1.58;0.50;;;12.00;99.90;;;;;;5064715;28;20033;-80
2023/06/04 05:04:23;;;;;;;1.20;0.40;;;11.90;99.90;;;;;;5069733;28;20090;-80
2023/06/04 05:06:49;;;;;;;2.42;0.40;;;12.10;99.90;;;;;;5047676;28;20024;-79
2023/06/04 05:09:15;;;;;;;1.77;0.50;;;12.00;99.90;;;;;;5063687;28;20025;-80
2023/06/04 05:11:41;;;;;;;1.27;0.40;;;12.10;99.90;;;;;;5065052;28;20043;-80
2023/06/04 05:14:07;;;;;;;1.60;0.30;;;12.20;99.90;;;;;;5063899;28;20032;-80
2023/06/04 05:16:35;;;;;;;2.88;0.50;;;12.20;99.90;;;;;;5071046;28;20021;-79
2023/06/04 05:19:01;;;;;;;1.60;0.40;;;12.20;99.90;;;;;;5047682;28;20466;-81
2023/06/04 05:21:31;;;;;;;2.90;0.40;;;12.40;99.90;;;;;;5050444;28;20029;-79
2023/06/04 05:24:01;;;;;;;1.90;0.40;;;12.40;99.90;;;;;;5063344;28;20120;-80
2023/06/04 05:26:32;;;;;;;1.42;0.40;;;12.50;99.90;;;;;;5050710;28;20040;-78
2023/06/04 05:29:01;;;;;;;1.55;0.40;;;12.60;99.90;;;;;;5049507;28;20260;-80
2023/06/04 05:31:34;;;;;;;1.70;0.30;;;12.60;99.90;;;;;;5077882;28;20396;-80
2023/06/04 05:34:07;;;;;;;0.90;0.38;;;12.70;99.90;;;;;;5051964;28;20546;-78
2023/06/04 05:36:35;;;;;;;0.93;0.30;;;12.80;99.90;;;;;;5052760;28;20020;-79
2023/06/04 05:39:04;;;;;;;1.90;0.35;;;13.00;99.90;;;;;;5076932;28;20025;-79
2023/06/04 05:41:42;;;;;;;1.23;0.30;;;13.20;99.90;;;;;;5074477;28;20037;-81
2023/06/04 05:44:08;;;;;;;1.50;0.30;;;13.20;99.90;;;;;;5045490;28;20112;-79
2023/06/04 05:46:34;;;;;;;1.02;0.40;;;13.50;99.90;;;;;;5061844;28;20131;-78
2023/06/04 05:49:00;;;;;;;0.95;0.25;;;13.60;99.90;;;;;;5076145;28;20025;-78
2023/06/04 05:51:27;;;;;;;3.45;0.40;;;13.70;99.90;;;;;;5046419;28;20112;-79
2023/06/04 05:53:52;;;;;;;1.40;0.38;;;13.80;99.90;;;;;;5045041;28;20120;-78
2023/06/04 05:56:18;;;;;;;1.58;0.30;;;13.90;99.90;;;;;;5050513;28;20052;-78
2023/06/04 05:58:51;;;;;;;2.58;0.47;;;14.20;99.90;;;;;;5071034;28;20024;-79
2023/06/04 06:01:17;;;;;;;1.52;0.30;;;14.20;99.90;;;;;;5061439;28;20032;-78
2023/06/04 06:03:42;;;;;;;1.70;0.32;;;14.40;99.90;;;;;;5048882;28;20553;-80
2023/06/04 06:06:10;;;;;;;1.10;0.25;;;14.50;99.90;;;;;;5063790;28;20074;-80
2023/06/04 06:08:36;;;;;;;1.65;0.28;;;14.70;99.90;;;;;;5048879;28;20028;-80
2023/06/04 06:11:04;;;;;;;0.93;0.35;;;14.70;99.90;;;;;;5064618;28;20025;-79
2023/06/04 06:13:29;;;;;;;1.38;0.40;;;14.80;99.90;;;;;;5043865;28;20119;-79
2023/06/04 06:15:57;;;;;;;1.50;0.30;;;15.10;99.90;;;;;;5067064;28;20422;-79
2023/06/04 06:18:23;;;;;;;1.02;0.32;;;15.00;99.90;;;;;;5061781;28;20025;-80
2023/06/04 06:20:48;;;;;;;3.38;0.30;;;15.10;99.90;;;;;;5061184;28;20021;-80
2023/06/04 06:23:15;;;;;;;1.48;0.40;;;15.40;99.90;;;;;;5050230;28;20033;-79
2023/06/04 06:25:46;;;;;;;3.50;0.43;;;15.50;99.90;;;;;;5048938;28;20058;-79
2023/06/04 06:28:17;;;;;;;1.10;0.30;;;15.50;99.90;;;;;;5062158;28;20341;-79
2023/06/04 06:30:45;;;;;;;1.80;0.40;;;15.50;99.90;;;;;;5066793;28;20083;-81
2023/06/04 06:33:10;;;;;;;1.48;0.30;;;15.70;99.90;;;;;;5063358;28;20052;-79
2023/06/04 06:35:36;;;;;;;1.05;0.35;;;15.90;99.90;;;;;;5049050;28;20030;-79
2023/06/04 06:38:02;;;;;;;1.92;0.40;;;16.00;99.90;;;;;;5049166;28;20032;-80
2023/06/04 06:40:30;;;;;;;1.88;0.30;;;16.10;99.90;;;;;;5050019;28;20055;-79
2023/06/04 06:42:56;;;;;;;1.20;0.40;;;16.20;99.90;;;;;;5044787;28;20045;-79
2023/06/04 06:45:21;;;;;;;1.23;0.40;;;16.30;99.90;;;;;;5048711;28;20082;-79
2023/06/04 06:47:47;;;;;;;1.73;0.60;;;16.30;99.90;;;;;;5049233;28;20071;-79
2023/06/04 06:50:13;;;;;;;3.63;0.60;;;15.80;99.90;;;;;;5048637;28;20551;-80
2023/06/04 06:52:39;;;;;;;3.28;0.60;;;16.00;99.90;;;;;;5059012;28;20032;-79
2023/06/04 06:55:05;;;;;;;1.63;0.50;;;15.80;99.90;;;;;;5065194;28;20032;-80
2023/06/04 06:57:31;;;;;;;4.03;0.70;;;16.30;99.90;;;;;;5060253;28;20116;-80
2023/06/04 06:59:57;;;;;;;3.13;0.60;;;15.90;99.90;;;;;;5063369;28;20111;-79
2023/06/04 07:02:22;;;;;;;1.73;0.40;;;16.30;99.90;;;;;;5060984;28;20079;-79
2023/06/04 07:04:48;;;;;;;1.92;0.40;;;16.90;99.90;;;;;;5058241;28;20027;-79
2023/06/04 07:07:14;;;;;;;1.70;0.40;;;17.10;99.90;;;;;;5060111;28;20089;-78
2023/06/04 07:09:39;;;;;;;1.48;0.40;;;17.30;99.90;;;;;;5044792;28;20060;-78
2023/06/04 07:12:06;;;;;;;1.80;0.50;;;16.90;99.90;;;;;;5047076;28;20063;-78
2023/06/04 07:14:32;;;;;;;2.15;0.30;;;17.10;99.90;;;;;;5062485;28;20021;-79
2023/06/04 07:16:57;;;;;;;2.92;0.60;;;17.50;99.90;;;;;;5046830;28;20025;-79
2023/06/04 07:19:23;;;;;;;2.05;0.40;;;17.00;99.90;;;;;;5061555;28;20061;-80
2023/06/04 07:21:50;;;;;;;2.00;0.50;;;17.20;99.90;;;;;;5063051;28;20032;-80
2023/06/04 07:24:16;;;;;;;1.52;0.40;;;17.40;99.90;;;;;;5046365;28;20440;-80
2023/06/04 07:26:41;;;;;;;1.38;0.30;;;18.10;99.90;;;;;;5094205;28;20154;-79
2023/06/04 07:29:07;;;;;;;1.08;0.47;;;18.10;99.90;;;;;;5059249;28;20397;-80
2023/06/04 07:31:33;;;;;;;2.03;0.35;;;18.00;99.90;;;;;;5049041;28;20045;-79
2023/06/04 07:33:58;;;;;;;1.25;0.30;;;18.10;99.90;;;;;;5042339;28;20028;-81
2023/06/04 07:36:24;;;;;;;1.90;0.40;;;18.50;99.90;;;;;;5072039;28;20032;-81
2023/06/04 07:38:50;;;;;;;0.93;0.30;;;18.50;99.90;;;;;;5063800;28;20028;-81
2023/06/04 07:41:15;;;;;;;2.35;0.30;;;18.70;99.90;;;;;;5059363;28;20473;-80
2023/06/04 07:43:43;;;;;;;1.60;0.30;;;19.20;99.90;;;;;;5061105;28;20070;-81
2023/06/04 07:46:09;;;;;;;2.22;0.40;;;19.10;99.90;;;;;;5062878;28;20029;-80
2023/06/04 07:48:35;;;;;;;1.55;0.45;;;19.10;99.90;;;;;;5045537;28;20398;-80
2023/06/04 07:51:04;;;;;;;1.23;0.35;;;19.20;99.90;;;;;;5038801;28;20028;-81
2023/06/04 07:53:30;;;;;;;3.50;0.30;;;19.40;99.90;;;;;;5041176;28;20496;-80
2023/06/04 07:55:56;;;;;;;1.13;0.30;;;19.30;99.90;;;;;;5039457;28;20013;-81
2023/06/04 07:58:22;;;;;;;1.60;0.25;;;19.70;99.90;;;;;;5056536;28;20475;-80
2023/06/04 08:00:48;;;;;;;1.50;0.30;;;20.00;99.90;;;;;;5040549;28;20036;-79
2023/06/04 08:03:15;;;;;;;1.65;0.30;;;20.20;99.90;;;;;;5044428;28;20094;-79
2023/06/04 08:05:41;;;;;;;1.73;0.40;;;19.70;99.90;;;;;;5061188;28;20043;-79
2023/06/04 08:08:07;;;;;;;1.40;0.40;;;19.60;99.90;;;;;;5044461;28;20040;-80
2023/06/04 08:10:32;;;;;;;2.20;0.40;;;19.90;99.90;;;;;;5060720;28;20423;-81
2023/06/04 08:12:58;;;;;;;1.70;0.40;;;19.90;99.90;;;;;;5051405;28;20021;-80
2023/06/04 08:15:24;;;;;;;1.08;0.40;;;19.60;99.90;;;;;;5055232;28;20051;-79
2023/06/04 08:17:50;;;;;;;1.10;0.30;;;19.70;99.90;;;;;;5040409;28;20028;-79
2023/06/04 08:20:15;;;;;;;1.38;0.40;;;20.30;99.90;;;;;;5064102;28;20043;-80
2023/06/04 08:22:41;;;;;;;1.55;0.38;;;20.40;99.90;;;;;;5056268;28;20052;-79
2023/06/04 08:25:08;;;;;;;2.10;0.45;;;20.00;99.90;;;;;;5055301;28;20023;-79
2023/06/04 08:27:34;;;;;;;1.10;0.40;;;19.80;99.90;;;;;;5041075;28;20029;-79
2023/06/04 08:30:00;;;;;;;2.78;0.40;;;19.90;99.90;;;;;;5049241;28;21857;-79
2023/06/04 08:32:26;;;;;;;1.48;0.40;;;20.40;99.90;;;;;;5051306;28;20028;-80
2023/06/04 08:34:52;;;;;;;2.25;0.32;;;20.20;99.90;;;;;;5068370;28;20017;-79
2023/06/04 08:37:18;;;;;;;2.85;0.40;;;20.00;99.90;;;;;;5047099;28;20025;-79
2023/06/04 08:39:43;;;;;;;2.42;0.43;;;20.00;99.90;;;;;;5048303;28;20432;-80
2023/06/04 08:42:30;;;;;;;1.55;0.50;;;19.90;99.90;;;;;;5049241;28;20033;-80
2023/06/04 08:44:57;;;;;;;1.15;0.40;;;20.10;99.90;;;;;;5049093;28;20025;-80
2023/06/04 08:47:26;;;;;;;1.80;0.40;;;20.70;99.90;;;;;;5063085;28;20029;-79
2023/06/04 08:49:52;;;;;;;2.50;0.30;;;20.70;99.90;;;;;;5062853;28;20032;-80
2023/06/04 08:52:21;;;;;;;3.42;0.40;;;20.90;99.90;;;;;;5050625;28;20025;-80
2023/06/04 08:54:51;;;;;;;1.53;0.30;;;20.50;99.90;;;;;;5042280;28;20028;-82
2023/06/04 08:57:20;;;;;;;1.08;0.30;;;20.80;99.90;;;;;;5060071;28;20285;-80
2023/06/04 08:59:46;;;;;;;1.30;0.20;;;21.30;99.90;;;;;;5064571;28;20097;-81
2023/06/04 09:02:16;;;;;;;2.10;0.30;;;21.60;99.90;;;;;;5051315;28;20331;-81
2023/06/04 09:04:43;;;;;;;1.55;0.30;;;21.80;99.90;;;;;;5063872;28;20041;-80
2023/06/04 09:07:12;;;;;;;1.38;0.30;;;21.40;99.90;;;;;;5051828;28;20453;-80
2023/06/04 09:09:39;;;;;;;2.33;0.30;;;21.40;99.90;;;;;;5068172;28;20025;-80
2023/06/04 09:12:10;;;;;;;3.58;0.30;;;22.00;99.90;;;;;;5059995;28;20039;-81
2023/06/04 09:14:36;;;;;;;0.98;0.17;;;21.70;99.90;;;;;;5050514;28;20528;-81
2023/06/04 09:17:01;;;;;;;0.95;0.20;;;21.80;99.90;;;;;;5051311;28;20021;-81
2023/06/04 09:19:27;;;;;;;0.98;0.20;;;22.00;99.50;;;;;;5067670;28;20438;-82
2023/06/04 09:21:55;;;;;;;1.98;0.20;;;22.20;99.90;;;;;;5044073;28;20039;-81
2023/06/04 09:24:23;;;;;;;0.65;0.10;;;22.20;99.30;;;;;;5063977;28;20361;-80
2023/06/04 09:26:50;;;;;;;0.90;0.17;;;22.30;98.60;;;;;;5091216;28;20074;-81
2023/06/04 09:29:16;;;;;;;0.55;0.10;;;22.50;98.30;;;;;;5056728;28;20045;-81
2023/06/04 09:31:44;;;;;;;0.50;0.10;;;22.80;98.60;;;;;;5060717;28;20025;-80
2023/06/04 09:34:10;;;;;;;0.47;0.10;;;22.90;98.20;;;;;;5063387;28;20032;-80
2023/06/04 09:36:36;;;;;;;0.50;0.10;;;22.80;97.30;;;;;;5061327;28;20428;-81
2023/06/04 09:39:16;;;;;;;1.80;0.20;;;22.50;97.50;;;;;;5066589;28;20560;-79
2023/06/04 09:41:42;;;;;;;0.50;0.20;;;22.40;97.30;;;;;;5062255;28;20470;-79
2023/06/04 09:44:10;;;;;;;0.75;0.10;;;23.10;98.10;;;;;;5059720;28;20039;-80
2023/06/04 09:46:36;;;;;;;0.60;0.10;;;23.10;96.20;;;;;;5080700;28;20120;-81
2023/06/04 09:49:06;;;;;;;1.33;0.10;;;23.50;96.10;;;;;;5069997;28;20107;-81
2023/06/04 09:51:32;;;;;;;0.60;0.10;;;23.20;95.70;;;;;;5044469;28;20039;-80
2023/06/04 09:53:59;;;;;;;0.57;0.10;;;23.30;95.80;;;;;;5049020;28;20044;-81
2023/06/04 09:56:26;;;;;;;0.93;0.20;;;23.60;95.00;;;;;;5064985;28;20225;-81
2023/06/04 09:59:02;;;;;;;1.63;0.20;;;23.10;95.90;;;;;;5040129;28;20028;-82
2023/06/04 10:01:29;;;;;;;0.77;0.20;;;23.10;95.80;;;;;;5064546;28;20039;-83
2023/06/04 10:04:02;;;;;;;0.52;0.20;;;23.00;94.90;;;;;;5061956;28;20021;-82
2023/06/04 10:06:32;;;;;;;0.68;0.13;;;23.30;94.80;;;;;;5062137;28;20028;-83
2023/06/04 10:09:03;;;;;;;0.15;0.03;;;23.80;94.40;;;;;;5061715;28;20029;-82
2023/06/04 10:11:46;;;;;;;0.88;0.10;;;23.80;93.30;;;;;;5046128;28;20447;-83
2023/06/04 10:14:44;;;;;;;1.50;0.10;;;23.70;93.50;;;;;;5061874;28;20033;-83
2023/06/04 10:17:12;;;;;;;0.35;0.10;;;23.90;94.30;;;;;;5043798;28;20520;-83
2023/06/04 10:19:40;;;;;;;0.32;0.10;;;24.10;92.50;;;;;;5078549;28;20453;-82
2023/06/04 10:22:05;;;;;;;1.80;0.15;;;23.60;92.60;;;;;;5061672;28;20063;-83
2023/06/04 10:24:31;;;;;;;0.47;0.10;;;23.50;92.80;;;;;;5045944;28;20056;-83
2023/06/04 10:26:58;;;;;;;0.68;0.00;;;24.30;93.10;;;;;;5094332;28;20028;-81
2023/06/04 10:29:25;;;;;;;0.30;0.10;;;24.20;93.10;;;;;;5059536;28;20422;-83
2023/06/04 10:31:55;;;;;;;1.52;0.10;;;24.30;92.80;;;;;;5058720;28;20294;-82
2023/06/04 10:34:20;;;;;;;;;;;24.50;92.00;;;;;;5060871;28;20040;-82
2023/06/04 10:36:46;;;;;;;1.40;0.10;;;24.20;92.10;;;;;;5046519;28;20282;-85
2023/06/04 10:39:12;;;;;;;0.73;0.10;;;24.40;92.20;;;;;;5049872;28;20432;-82
2023/06/04 10:41:38;;;;;;;0.43;0.10;;;24.10;91.00;;;;;;5060033;28;20025;-83
2023/06/04 10:44:04;;;;;;;0.40;0.10;;;24.20;91.10;;;;;;5073409;28;20084;-83
2023/06/04 10:46:41;;;;;;;0.20;0.10;;;24.60;92.10;;;;;;5061023;28;20032;-84
2023/06/04 10:49:11;;;;;;;0.50;0.10;;;24.70;91.60;;;;;;5059883;28;20040;-84
2023/06/04 10:51:37;;;;;;;0.52;0.10;;;24.90;92.10;;;;;;5071036;28;20466;-84
2023/06/04 10:54:04;;;;;;;0.75;0.10;;;25.00;91.40;;;;;;5061897;28;20111;-84
2023/06/04 10:56:37;;;;;;;3.67;0.10;;;24.80;91.50;;;;;;5059642;28;20269;-84
2023/06/04 10:59:16;;;;;;;0.52;0.10;;;24.60;91.10;;;;;;5060224;28;20025;-83
2023/06/04 11:01:41;;;;;;;0.63;0.10;;;24.50;91.40;;;;;;5071563;28;20036;-83
2023/06/04 11:04:18;;;;;;;0.88;0.10;;;24.20;91.80;;;;;;5057321;28;20078;-84
2023/06/04 11:06:45;;;;;;;0.63;0.10;;;24.30;91.90;;;;;;5043834;28;20134;-84
2023/06/04 11:09:16;;;;;;;1.00;0.10;;;24.60;90.90;;;;;;5063579;28;20044;-84
2023/06/04 11:11:41;;;;;;;0.40;0.10;;;24.80;91.30;;;;;;5060042;28;20082;-84
2023/06/04 11:14:13;;;;;;;1.65;0.10;;;24.70;90.50;;;;;;5063118;28;20032;-85
2023/06/04 11:16:39;;;;;;;0.30;0.10;;;24.60;91.00;;;;;;5062995;28;20524;-84
2023/06/04 11:19:05;;;;;;;0.57;0.10;;;25.00;91.40;;;;;;5056967;28;20032;-85
2023/06/04 11:21:34;;;;;;;0.20;0.10;;;24.10;91.70;;;;;;5062251;28;20645;-84
2023/06/04 11:24:00;;;;;;;1.05;0.10;;;24.50;91.20;;;;;;5064150;28;20101;-85
2023/06/04 11:26:37;;;;;;;0.95;0.13;;;24.90;92.10;;;;;;5060285;28;20059;-85
2023/06/04 11:29:07;;;;;;;0.28;0.00;;;24.60;90.40;;;;;;5055684;28;20495;-84
2023/06/04 11:31:46;;;;;;;0.25;0.10;;;24.90;91.20;;;;;;5060041;28;20029;-83
2023/06/04 11:34:29;;;;;;;0.35;0.00;;;25.20;91.10;;;;;;5044644;28;20043;-84
2023/06/04 11:36:55;;;;;;;0.30;0.10;;;25.50;90.40;;;;;;5062068;28;20033;-85
2023/06/04 11:39:35;;;;;;;0.57;0.10;;;25.40;90.70;;;;;;5063093;28;20429;-86
2023/06/04 11:42:05;;;;;;;0.40;0.10;;;25.30;91.00;;;;;;5045031;28;20060;-84
2023/06/04 11:44:31;;;;;;;0.50;0.10;;;25.40;90.90;;;;;;5064099;28;20096;-83
2023/06/04 11:46:56;;;;;;;0.50;0.10;;;25.50;91.30;;;;;;5096995;28;20107;-84
2023/06/04 11:49:22;;;;;;;0.20;0.00;;;25.40;89.90;;;;;;5067067;28;20020;-85
2023/06/04 11:51:49;;;;;;;0.35;0.10;;;25.30;90.30;;;;;;5048291;28;20035;-83
2023/06/04 11:54:20;;;;;;;0.40;0.00;;;25.20;90.90;;;;;;5045256;28;20163;-83
2023/06/04 11:56:48;;;;;;;0.88;0.10;;;25.60;91.30;;;;;;5048497;28;20028;-83
2023/06/04 11:59:15;;;;;;;0.50;0.10;;;25.40;90.00;;;;;;5060717;28;20405;-82
2023/06/04 12:01:45;;;;;;;1.20;0.10;;;25.20;90.10;;;;;;5047723;28;20044;-85
2023/06/04 12:04:16;;;;;;;1.75;0.10;;;25.40;90.50;;;;;;5043753;28;20118;-84
2023/06/04 12:06:59;;;;;;;0.40;0.00;;;25.30;90.50;;;;;;5058439;28;20052;-83
2023/06/04 12:09:29;;;;;;;2.50;0.20;;;24.70;90.30;;;;;;5045289;28;20462;-80
2023/06/04 12:12:02;;;;;;;0.40;0.10;;;24.90;90.90;;;;;;5043606;28;20027;-82
2023/06/04 12:14:29;;;;;;;0.77;0.10;;;25.50;90.60;;;;;;5044375;28;20365;-81
2023/06/04 12:17:05;;;;;;;0.40;0.10;;;24.90;90.70;;;;;;5044672;28;20053;-81
2023/06/04 12:19:31;;;;;;;1.58;0.10;;;25.40;90.70;;;;;;5063689;28;20036;-81
2023/06/04 12:22:02;;;;;;;1.40;0.10;;;25.00;90.60;;;;;;5046769;28;20036;-82
2023/06/04 12:24:28;;;;;;;0.55;0.10;;;25.10;91.40;;;;;;5057803;28;20031;-82
2023/06/04 12:27:22;;;;;;;1.25;0.10;;;25.20;91.20;;;;;;5044971;28;20028;-82
2023/06/04 12:29:59;;;;;;;0.50;0.10;;;25.70;90.80;;;;;;5062926;28;20029;-82
2023/06/04 12:32:25;;;;;;;2.80;0.10;;;25.10;91.10;;;;;;5059031;28;20029;-83
2023/06/04 12:34:51;;;;;;;0.95;0.20;;;24.90;91.30;;;;;;5040333;28;20056;-83
2023/06/04 12:37:17;;;;;;;0.28;0.10;;;25.00;89.90;;;;;;5046819;28;20485;-83
2023/06/04 12:39:43;;;;;;;0.50;0.10;;;25.20;90.60;;;;;;5058842;28;20032;-83
2023/06/04 12:42:09;;;;;;;0.80;0.10;;;25.80;90.80;;;;;;5043787;28;20404;-82
2023/06/04 12:44:41;;;;;;;0.52;0.10;;;25.60;90.80;;;;;;5045975;28;20543;-83
2023/06/04 12:47:07;;;;;;;1.75;0.15;;;25.30;90.80;;;;;;5062189;28;20035;-82
2023/06/04 12:49:33;;;;;;;0.40;0.10;;;25.40;89.60;;;;;;5057779;28;20024;-83
2023/06/04 12:51:59;;;;;;;0.65;0.20;;;25.10;90.00;;;;;;5058884;28;20032;-83